Weather at Lee Field

Public forecast

Using degrees Fahrenheit for public forecast. Weather courtesy of forecast.io.

Closest aviation weather report (METAR) to Lee Field

Closest report is Middle Peninsula Regional Airport, 4.8 nm (8.9 km) ESE. Retrieved 2020/10/23 10:35 UTC (0 seconds ago):

KFYJ 231035Z AUTO 00000KT 1 1/2SM BKN001 13/13 A3019 RMK AO1 T01320131

Closest aviation forecast (TAF) to Lee Field

Closest forecast is Richmond International Airport, 22.5 nm (41.7 km) W. Retrieved 2020/10/23 06:36 UTC (4 hours ago):

TAF KRIC 230534Z 2306/2406 00000KT P6SM SCT250 FM230800 00000KT 3SM BR SCT250 FM231000 00000KT 1SM BR BKN003 TEMPO 2310/2312 1/2SM FG VV002 FM231300 VRB03KT 2SM BR BKN005 FM231500 VRB03KT P6SM SCT080 BKN250